createdAt,value
2023-01-15T00:02:17.568Z,99.99
2023-01-15T00:07:17.468Z,99.99
2023-01-15T00:12:17.379Z,99.99
2023-01-15T00:17:17.333Z,99.99
2023-01-15T00:22:17.231Z,99.99
2023-01-15T00:27:17.192Z,99.99
2023-01-15T00:32:17.172Z,99.99
2023-01-15T00:37:17.047Z,99.99
2023-01-15T00:42:16.991Z,99.99
2023-01-15T00:47:16.968Z,99.99
2023-01-15T00:52:16.859Z,99.99
2023-01-15T00:57:16.805Z,99.99
2023-01-15T01:02:16.810Z,99.99
2023-01-15T01:07:16.673Z,99.99
2023-01-15T01:12:16.600Z,99.99
2023-01-15T01:17:16.541Z,99.99
2023-01-15T01:22:16.473Z,99.99
2023-01-15T01:27:16.413Z,99.99
2023-01-15T01:32:16.360Z,99.99
2023-01-15T01:37:16.294Z,99.99
2023-01-15T01:42:16.228Z,99.99
2023-01-15T01:47:16.175Z,99.99
2023-01-15T01:52:16.089Z,99.77
2023-01-15T01:57:16.052Z,99.87
2023-01-15T02:02:16.044Z,99.99
2023-01-15T02:07:15.894Z,99.99
2023-01-15T02:12:15.823Z,99.99
2023-01-15T02:17:15.763Z,99.99
2023-01-15T02:22:15.694Z,99.99
2023-01-15T02:27:15.641Z,99.99
2023-01-15T02:32:15.587Z,99.99
2023-01-15T02:37:15.517Z,99.71
2023-01-15T02:42:15.432Z,98.99
2023-01-15T02:47:15.363Z,99.30
2023-01-15T02:52:15.297Z,98.68
2023-01-15T02:57:15.250Z,99.09
2023-01-15T03:02:15.272Z,99.76
2023-01-15T03:07:15.130Z,99.99
2023-01-15T03:12:15.045Z,99.99
2023-01-15T03:17:14.985Z,99.99
2023-01-15T03:22:14.906Z,99.99
2023-01-15T03:27:14.815Z,99.99
2023-01-15T03:32:14.758Z,99.99
2023-01-15T03:37:14.706Z,99.99
2023-01-15T03:42:14.621Z,99.99
2023-01-15T03:47:14.571Z,99.99
2023-01-15T03:52:14.493Z,99.99
2023-01-15T03:57:14.416Z,99.99
2023-01-15T04:02:14.443Z,99.99
2023-01-15T04:07:14.279Z,99.99
2023-01-15T04:12:14.199Z,99.99
2023-01-15T04:17:14.126Z,99.99
2023-01-15T04:22:14.060Z,99.99
2023-01-15T04:27:14.000Z,99.99
2023-01-15T04:32:13.939Z,99.99
2023-01-15T04:37:13.859Z,99.99
2023-01-15T04:42:13.787Z,99.99
2023-01-15T04:47:13.729Z,99.99
2023-01-15T04:52:13.652Z,99.99
2023-01-15T04:57:13.578Z,99.99
2023-01-15T05:02:15.200Z,99.99
2023-01-15T05:07:13.432Z,99.99
2023-01-15T05:12:13.372Z,99.99
2023-01-15T05:17:13.294Z,99.99
2023-01-15T05:22:13.252Z,99.99
2023-01-15T05:27:13.148Z,99.99
2023-01-15T05:32:13.110Z,99.99
2023-01-15T05:37:13.010Z,99.99
2023-01-15T05:42:12.950Z,99.99
2023-01-15T05:47:12.871Z,99.99
2023-01-15T05:52:12.818Z,99.99
2023-01-15T05:57:12.741Z,99.99
2023-01-15T06:02:12.676Z,99.99
2023-01-15T06:07:12.605Z,99.99
2023-01-15T06:12:12.539Z,99.99
2023-01-15T06:17:12.475Z,99.99
2023-01-15T06:22:12.393Z,99.99
2023-01-15T06:27:12.305Z,99.99
2023-01-15T06:32:12.264Z,99.99
2023-01-15T06:37:12.176Z,99.99
2023-01-15T06:42:12.117Z,99.99
2023-01-15T06:47:12.043Z,99.99
2023-01-15T06:52:11.991Z,99.99
2023-01-15T06:57:11.933Z,99.99
2023-01-15T07:02:11.858Z,99.99
2023-01-15T07:07:11.774Z,99.99
2023-01-15T07:12:11.714Z,99.99
2023-01-15T07:17:11.635Z,99.99
2023-01-15T07:22:11.596Z,99.99
2023-01-15T07:27:11.502Z,99.65
2023-01-15T07:32:11.435Z,99.40
2023-01-15T07:37:11.370Z,99.09
2023-01-15T07:42:11.312Z,98.79
2023-01-15T07:47:11.418Z,98.68
2023-01-15T07:52:11.165Z,98.47
2023-01-15T07:57:11.107Z,98.33
2023-01-15T08:02:11.052Z,97.50
2023-01-15T08:07:10.983Z,97.25
2023-01-15T08:12:10.928Z,96.73
2023-01-15T08:17:10.846Z,96.94
2023-01-15T08:22:10.795Z,96.69
2023-01-15T08:27:10.726Z,96.59
2023-01-15T08:32:10.668Z,96.59
2023-01-15T08:37:10.614Z,96.69
2023-01-15T08:42:10.538Z,96.48
2023-01-15T08:47:10.477Z,96.23
2023-01-15T08:52:10.412Z,96.14
2023-01-15T08:57:10.389Z,96.09
2023-01-15T09:02:10.331Z,95.89
2023-01-15T09:07:10.337Z,95.78
2023-01-15T09:12:10.160Z,95.78
2023-01-15T09:17:10.100Z,96.04
2023-01-15T09:22:10.029Z,96.04
2023-01-15T09:27:09.970Z,95.84
2023-01-15T09:32:09.937Z,96.25
2023-01-15T09:37:09.850Z,96.62
2023-01-15T09:42:09.807Z,96.62
2023-01-15T09:47:09.710Z,96.41
2023-01-15T09:52:09.641Z,96.82
2023-01-15T09:57:09.590Z,96.57
2023-01-15T10:02:09.521Z,98.37
2023-01-15T10:07:09.456Z,99.99
2023-01-15T10:12:09.394Z,99.99
2023-01-15T10:17:09.332Z,99.99
2023-01-15T10:22:09.263Z,99.99
2023-01-15T10:27:09.225Z,99.99
2023-01-15T10:32:09.134Z,99.99
2023-01-15T10:37:09.072Z,99.99
2023-01-15T10:42:09.018Z,99.99
2023-01-15T10:47:08.958Z,99.99
2023-01-15T10:52:08.885Z,99.99
2023-01-15T10:57:08.825Z,99.99
2023-01-15T11:02:08.850Z,99.99
2023-01-15T11:07:08.699Z,99.99
2023-01-15T11:12:08.656Z,99.99
2023-01-15T11:17:08.567Z,99.99
2023-01-15T11:22:08.499Z,99.99
2023-01-15T11:27:08.437Z,99.99
2023-01-15T11:32:08.379Z,99.99
2023-01-15T11:37:08.308Z,99.99
2023-01-15T11:42:08.250Z,99.99
2023-01-15T11:47:08.181Z,99.99
2023-01-15T11:52:08.108Z,99.99
2023-01-15T11:57:08.059Z,99.99
2023-01-15T12:02:07.991Z,99.99
2023-01-15T12:07:07.931Z,99.99
2023-01-15T12:12:07.866Z,99.99
2023-01-15T12:17:07.780Z,99.99
2023-01-15T12:22:07.727Z,99.99
2023-01-15T12:27:07.664Z,99.99
2023-01-15T12:32:07.591Z,99.99
2023-01-15T12:37:07.532Z,99.99
2023-01-15T12:42:07.459Z,99.99
2023-01-15T12:47:07.400Z,99.05
2023-01-15T12:52:07.318Z,99.40
2023-01-15T12:57:07.251Z,99.40
2023-01-15T13:02:07.284Z,99.60
2023-01-15T13:07:07.117Z,98.16
2023-01-15T13:12:07.042Z,98.58
2023-01-15T13:17:07.002Z,98.00
2023-01-15T13:22:06.902Z,99.14
2023-01-15T13:27:06.853Z,99.70
2023-01-15T13:32:06.783Z,99.99
2023-01-15T13:37:06.729Z,99.99
2023-01-15T13:42:06.631Z,98.92
2023-01-15T13:47:06.573Z,97.99
2023-01-15T13:52:06.508Z,98.10
2023-01-15T13:57:06.441Z,98.41
2023-01-15T14:02:06.407Z,97.58
2023-01-15T14:07:07.759Z,96.18
2023-01-15T14:12:06.244Z,95.77
2023-01-15T14:17:06.183Z,95.36
2023-01-15T14:22:06.106Z,94.95
2023-01-15T14:27:06.042Z,94.43
2023-01-15T14:32:05.974Z,93.44
2023-01-15T14:37:05.918Z,93.65
2023-01-15T14:42:05.842Z,93.85
2023-01-15T14:47:05.775Z,93.85
2023-01-15T14:52:05.704Z,94.17
2023-01-15T14:57:05.649Z,93.34
2023-01-15T15:02:05.707Z,92.86
2023-01-15T15:07:05.539Z,91.94
2023-01-15T15:12:05.458Z,92.14
2023-01-15T15:17:05.397Z,92.86
2023-01-15T15:22:05.327Z,92.97
2023-01-15T15:27:05.260Z,92.25
2023-01-15T15:32:05.195Z,90.64
2023-01-15T15:37:05.146Z,88.78
2023-01-15T15:42:05.068Z,89.29
2023-01-15T15:47:05.007Z,90.47
2023-01-15T15:52:04.936Z,88.61
2023-01-15T15:57:04.889Z,89.34
2023-01-15T16:02:04.905Z,88.41
2023-01-15T16:07:04.767Z,88.34
2023-01-15T16:12:04.694Z,88.34
2023-01-15T16:17:04.648Z,87.21
2023-01-15T16:22:04.565Z,87.41
2023-01-15T16:27:04.505Z,87.15
2023-01-15T16:32:04.447Z,87.66
2023-01-15T16:37:04.381Z,88.49
2023-01-15T16:42:04.320Z,87.66
2023-01-15T16:47:04.249Z,86.67
2023-01-15T16:52:04.189Z,87.56
2023-01-15T16:57:04.127Z,87.29
2023-01-15T17:02:04.152Z,86.88
2023-01-15T17:07:04.005Z,86.15
2023-01-15T17:12:03.937Z,86.77
2023-01-15T17:17:03.875Z,87.08
2023-01-15T17:22:03.827Z,86.98
2023-01-15T17:27:03.760Z,86.88
2023-01-15T17:32:04.649Z,86.09
2023-01-15T17:37:03.637Z,86.50
2023-01-15T17:42:03.567Z,86.81
2023-01-15T17:47:03.517Z,87.12
2023-01-15T17:52:03.451Z,87.02
2023-01-15T17:57:03.395Z,87.33
2023-01-15T18:02:03.355Z,87.74
2023-01-15T18:07:03.281Z,88.26
2023-01-15T18:12:03.207Z,88.30
2023-01-15T18:17:03.162Z,88.71
2023-01-15T18:22:03.095Z,89.13
2023-01-15T18:27:03.049Z,89.48
2023-01-15T18:32:02.959Z,89.79
2023-01-15T18:37:02.902Z,90.31
2023-01-15T18:42:02.855Z,90.72
2023-01-15T18:47:02.793Z,91.18
2023-01-15T18:52:02.728Z,91.39
2023-01-15T18:57:02.684Z,91.80
2023-01-15T19:02:02.663Z,92.26
2023-01-15T19:07:02.569Z,92.57
2023-01-15T19:12:02.507Z,92.88
2023-01-15T19:17:02.473Z,93.50
2023-01-15T19:22:02.399Z,94.43
2023-01-15T19:27:02.348Z,95.16
2023-01-15T19:32:02.289Z,95.51
2023-01-15T19:37:02.251Z,96.24
2023-01-15T19:42:02.180Z,96.76
2023-01-15T19:47:02.155Z,96.97
2023-01-15T19:52:02.075Z,97.53
2023-01-15T19:57:02.034Z,97.85
2023-01-15T20:02:01.974Z,98.05
2023-01-15T20:07:01.905Z,98.05
2023-01-15T20:12:01.863Z,97.59
2023-01-15T20:17:01.796Z,97.24
2023-01-15T20:22:01.737Z,96.92
2023-01-15T20:27:01.685Z,96.82
2023-01-15T20:32:01.616Z,96.51
2023-01-15T20:37:02.221Z,96.51
2023-01-15T20:42:01.528Z,96.41
2023-01-15T20:47:01.468Z,95.99
2023-01-15T20:52:01.491Z,96.09
2023-01-15T20:57:01.382Z,96.09
2023-01-15T21:02:01.334Z,95.99
2023-01-15T21:07:01.251Z,96.09
2023-01-15T21:12:01.191Z,95.89
2023-01-15T21:17:01.145Z,95.57
2023-01-15T21:22:01.085Z,95.26
2023-01-15T21:27:01.037Z,95.16
2023-01-15T21:32:00.964Z,94.85
2023-01-15T21:37:00.910Z,94.74
2023-01-15T21:42:00.853Z,94.64
2023-01-15T21:47:00.807Z,94.68
2023-01-15T21:52:00.749Z,94.48
2023-01-15T21:57:00.685Z,94.37
2023-01-15T22:02:00.847Z,94.12
2023-01-15T22:07:00.579Z,94.06
2023-01-15T22:12:00.533Z,93.65
2023-01-15T22:17:00.461Z,93.54
2023-01-15T22:22:00.402Z,93.44
2023-01-15T22:27:00.346Z,93.23
2023-01-15T22:32:00.280Z,93.02
2023-01-15T22:37:00.227Z,93.02
2023-01-15T22:42:00.165Z,93.02
2023-01-15T22:47:00.107Z,92.93
2023-01-15T22:52:00.053Z,92.93
2023-01-15T22:57:00.005Z,92.82
2023-01-15T23:02:00.024Z,92.86
2023-01-15T23:06:59.893Z,92.76
2023-01-15T23:11:59.820Z,93.18
2023-01-15T23:16:59.760Z,93.70
2023-01-15T23:21:59.700Z,94.15
2023-01-15T23:26:59.649Z,94.57
2023-01-15T23:31:59.589Z,95.03
2023-01-15T23:36:59.543Z,95.23
2023-01-15T23:41:59.459Z,95.03
2023-01-15T23:46:59.417Z,94.51
2023-01-15T23:51:59.338Z,94.51
2023-01-15T23:56:59.318Z,94.61
